createdAt,value
2019-03-30T00:02:17.525Z,40.68
2019-03-30T00:04:44.770Z,40.67
2019-03-30T00:07:11.650Z,40.67
2019-03-30T00:09:38.884Z,40.71
2019-03-30T00:12:06.157Z,40.86
2019-03-30T00:14:33.419Z,41.10
2019-03-30T00:17:00.729Z,41.16
2019-03-30T00:19:34.802Z,41.22
2019-03-30T00:21:57.600Z,41.40
2019-03-30T00:24:24.496Z,41.51
2019-03-30T00:26:51.817Z,41.64
2019-03-30T00:29:18.823Z,41.64
2019-03-30T00:31:46.097Z,41.72
2019-03-30T00:34:12.964Z,41.73
2019-03-30T00:36:40.194Z,41.81
2019-03-30T00:39:07.461Z,42.00
2019-03-30T00:41:34.439Z,42.10
2019-03-30T00:44:02.684Z,41.89
2019-03-30T00:46:29.927Z,41.72
2019-03-30T00:48:57.177Z,41.60
2019-03-30T00:51:24.069Z,41.66
2019-03-30T00:53:51.386Z,41.55
2019-03-30T00:56:18.734Z,41.42
2019-03-30T00:58:45.988Z,41.36
2019-03-30T01:01:13.253Z,41.44
2019-03-30T01:03:41.834Z,41.52
2019-03-30T01:06:09.798Z,41.75
2019-03-30T01:08:36.687Z,41.73
2019-03-30T01:11:03.652Z,41.74
2019-03-30T01:13:30.526Z,41.66
2019-03-30T01:15:57.553Z,41.56
2019-03-30T01:18:24.837Z,41.56
2019-03-30T01:20:51.778Z,41.73
2019-03-30T01:23:18.687Z,42.04
2019-03-30T01:25:47.218Z,42.08
2019-03-30T01:28:14.543Z,41.95
2019-03-30T01:30:41.465Z,42.08
2019-03-30T01:33:08.505Z,42.21
2019-03-30T01:35:35.440Z,42.05
2019-03-30T01:38:02.370Z,41.87
2019-03-30T01:40:29.340Z,41.83
2019-03-30T01:42:56.303Z,41.73
2019-03-30T01:45:23.263Z,41.69
2019-03-30T01:47:50.636Z,41.65
2019-03-30T01:50:18.161Z,41.63
2019-03-30T01:52:45.550Z,41.81
2019-03-30T01:55:12.807Z,42.05
2019-03-30T01:57:39.785Z,42.33
2019-03-30T02:00:07.106Z,42.49
2019-03-30T02:02:34.041Z,42.73
2019-03-30T02:05:00.916Z,42.77
2019-03-30T02:07:27.857Z,42.89
2019-03-30T02:09:54.752Z,42.92
2019-03-30T02:12:21.739Z,42.88
2019-03-30T02:14:48.961Z,42.79
2019-03-30T02:17:16.129Z,42.81
2019-03-30T02:19:43.017Z,42.95
2019-03-30T02:22:09.973Z,42.88
2019-03-30T02:24:37.279Z,42.78
2019-03-30T02:27:04.236Z,42.70
2019-03-30T02:29:31.165Z,42.56
2019-03-30T02:31:58.038Z,42.46
2019-03-30T02:34:24.988Z,42.51
2019-03-30T02:36:51.965Z,42.41
2019-03-30T02:39:19.564Z,42.37
2019-03-30T02:41:46.425Z,42.33
2019-03-30T02:44:13.657Z,42.32
2019-03-30T02:46:40.552Z,42.38
2019-03-30T02:49:07.525Z,42.60
2019-03-30T02:51:34.815Z,42.67
2019-03-30T02:54:01.801Z,42.50
2019-03-30T02:56:29.750Z,42.36
2019-03-30T02:58:57.912Z,42.25
2019-03-30T03:01:24.856Z,42.18
2019-03-30T03:03:51.813Z,42.09
2019-03-30T03:06:18.827Z,42.10
2019-03-30T03:08:46.117Z,42.12
2019-03-30T03:11:13.440Z,42.14
2019-03-30T03:13:40.700Z,42.30
2019-03-30T03:16:07.615Z,42.35
2019-03-30T03:18:34.563Z,42.28
2019-03-30T03:21:07.908Z,42.61
2019-03-30T03:23:30.419Z,42.61
2019-03-30T03:25:57.570Z,42.53
2019-03-30T03:28:24.533Z,42.42
2019-03-30T03:30:51.510Z,42.35
2019-03-30T03:33:18.727Z,42.29
2019-03-30T03:35:45.962Z,42.25
2019-03-30T03:38:12.926Z,42.19
2019-03-30T03:40:39.883Z,42.06
2019-03-30T03:43:06.855Z,42.09
2019-03-30T03:45:34.077Z,42.11
2019-03-30T03:48:01.067Z,42.26
2019-03-30T03:50:28.358Z,42.37
2019-03-30T03:52:55.336Z,42.45
2019-03-30T03:55:22.287Z,42.55
2019-03-30T03:57:49.263Z,42.65
2019-03-30T04:00:16.186Z,42.71
2019-03-30T04:02:43.125Z,42.76
2019-03-30T04:05:10.286Z,42.80
2019-03-30T04:07:37.247Z,42.84
2019-03-30T04:10:04.225Z,42.84
2019-03-30T04:12:31.168Z,42.84
2019-03-30T04:14:58.189Z,42.73
2019-03-30T04:17:25.397Z,42.88
2019-03-30T04:19:52.381Z,43.00
2019-03-30T04:22:19.257Z,43.13
2019-03-30T04:24:46.243Z,43.27
2019-03-30T04:27:13.480Z,43.23
2019-03-30T04:29:40.471Z,43.04
2019-03-30T04:32:07.759Z,43.04
2019-03-30T04:34:35.052Z,43.14
2019-03-30T04:37:02.311Z,43.24
2019-03-30T04:39:29.272Z,43.23
2019-03-30T04:41:56.252Z,43.14
2019-03-30T04:44:23.270Z,43.05
2019-03-30T04:46:51.219Z,43.09
2019-03-30T04:49:18.267Z,43.20
2019-03-30T04:51:56.968Z,43.33
2019-03-30T04:54:13.904Z,43.32
2019-03-30T04:56:41.207Z,43.33
2019-03-30T04:59:08.474Z,43.26
2019-03-30T05:01:35.422Z,43.26
2019-03-30T05:04:02.324Z,43.23
2019-03-30T05:06:30.340Z,43.27
2019-03-30T05:08:57.271Z,43.35
2019-03-30T05:11:24.533Z,43.28
2019-03-30T05:13:51.403Z,43.24
2019-03-30T05:16:18.296Z,43.27
2019-03-30T05:18:45.576Z,43.23
2019-03-30T05:21:12.830Z,43.19
2019-03-30T05:23:40.087Z,43.18
2019-03-30T05:26:07.320Z,43.39
2019-03-30T05:28:34.193Z,43.45
2019-03-30T05:31:01.090Z,43.25
2019-03-30T05:33:28.373Z,43.04
2019-03-30T05:35:56.318Z,42.93
2019-03-30T05:38:23.182Z,42.91
2019-03-30T05:40:50.065Z,42.94
2019-03-30T05:43:17.022Z,43.10
2019-03-30T05:45:43.961Z,43.11
2019-03-30T05:48:11.210Z,43.10
2019-03-30T05:50:38.524Z,43.08
2019-03-30T05:53:05.673Z,42.95
2019-03-30T05:55:32.933Z,42.82
2019-03-30T05:57:59.917Z,42.56
2019-03-30T06:00:27.265Z,42.34
2019-03-30T06:02:54.273Z,42.26
2019-03-30T06:05:21.526Z,42.22
2019-03-30T06:07:48.397Z,42.12
2019-03-30T06:10:15.630Z,41.93
2019-03-30T06:12:42.601Z,41.51
2019-03-30T06:15:09.544Z,41.19
2019-03-30T06:17:36.494Z,40.89
2019-03-30T06:20:03.421Z,40.50
2019-03-30T06:22:40.285Z,40.20
2019-03-30T06:24:59.207Z,40.15
2019-03-30T06:27:26.153Z,39.70
2019-03-30T06:29:53.341Z,39.49
2019-03-30T06:32:20.269Z,39.21
2019-03-30T06:34:47.217Z,38.94
2019-03-30T06:37:14.184Z,38.58
2019-03-30T06:39:41.537Z,38.29
2019-03-30T06:42:08.505Z,37.99
2019-03-30T06:44:35.818Z,37.78
2019-03-30T06:47:03.154Z,37.65
2019-03-30T06:49:30.132Z,37.33
2019-03-30T06:51:57.179Z,37.12
2019-03-30T06:54:24.149Z,36.83
2019-03-30T06:56:51.236Z,36.47
2019-03-30T06:59:18.189Z,36.29
2019-03-30T07:01:45.134Z,36.04
2019-03-30T07:04:12.281Z,35.74
2019-03-30T07:06:39.208Z,35.33
2019-03-30T07:09:06.610Z,34.95
2019-03-30T07:11:33.761Z,34.64
2019-03-30T07:14:00.947Z,34.33
2019-03-30T07:16:27.945Z,34.03
2019-03-30T07:18:54.987Z,33.81
2019-03-30T07:21:21.968Z,33.71
2019-03-30T07:23:48.964Z,33.46
2019-03-30T07:26:15.830Z,33.11
2019-03-30T07:28:42.725Z,32.86
2019-03-30T07:31:09.955Z,32.75
2019-03-30T07:33:36.925Z,32.43
2019-03-30T07:36:05.270Z,32.00
2019-03-30T07:38:32.417Z,31.83
2019-03-30T07:40:59.569Z,31.55
2019-03-30T07:43:26.557Z,31.32
2019-03-30T07:45:53.552Z,31.03
2019-03-30T07:48:20.717Z,30.76
2019-03-30T07:50:47.865Z,30.46
2019-03-30T07:53:25.802Z,30.19
2019-03-30T07:55:43.332Z,29.84
2019-03-30T07:58:10.729Z,29.50
2019-03-30T08:00:38.060Z,29.23
2019-03-30T08:03:05.010Z,28.83
2019-03-30T08:05:32.312Z,28.40
2019-03-30T08:07:59.285Z,28.08
2019-03-30T08:10:26.205Z,27.76
2019-03-30T08:12:53.450Z,27.72
2019-03-30T08:15:20.417Z,28.04
2019-03-30T08:17:47.319Z,28.24
2019-03-30T08:20:14.486Z,28.54
2019-03-30T08:22:41.655Z,28.97
2019-03-30T08:25:09.005Z,29.55
2019-03-30T08:27:35.890Z,30.07
2019-03-30T08:30:03.192Z,30.58
2019-03-30T08:32:30.092Z,31.04
2019-03-30T08:34:57.298Z,31.36
2019-03-30T08:37:24.273Z,31.60
2019-03-30T08:39:51.597Z,31.77
2019-03-30T08:42:18.534Z,31.96
2019-03-30T08:44:45.429Z,32.03
2019-03-30T08:47:12.671Z,32.06
2019-03-30T08:49:39.616Z,32.22
2019-03-30T08:52:06.775Z,32.27
2019-03-30T08:54:33.980Z,32.36
2019-03-30T08:57:00.869Z,32.45
2019-03-30T08:59:27.805Z,32.29
2019-03-30T09:01:54.705Z,32.30
2019-03-30T09:04:21.663Z,32.31
2019-03-30T09:06:48.582Z,32.42
2019-03-30T09:09:15.480Z,32.52
2019-03-30T09:11:43.604Z,32.38
2019-03-30T09:14:10.836Z,32.60
2019-03-30T09:16:37.826Z,32.62
2019-03-30T09:19:06.316Z,32.50
2019-03-30T09:21:33.390Z,32.51
2019-03-30T09:24:09.714Z,32.53
2019-03-30T09:26:29.309Z,32.47
2019-03-30T09:28:56.263Z,32.52
2019-03-30T09:31:23.138Z,32.59
2019-03-30T09:33:50.339Z,32.64
2019-03-30T09:36:17.585Z,32.38
2019-03-30T09:38:44.893Z,32.12
2019-03-30T09:41:12.453Z,31.96
2019-03-30T09:43:39.756Z,30.43
2019-03-30T09:46:07.222Z,29.91
2019-03-30T09:48:34.573Z,29.64
2019-03-30T09:51:01.722Z,29.93
2019-03-30T09:53:28.873Z,30.15
2019-03-30T09:55:55.753Z,30.48
2019-03-30T09:58:23.097Z,30.67
2019-03-30T10:00:50.052Z,30.69
2019-03-30T10:03:17.380Z,30.71
2019-03-30T10:05:45.740Z,30.83
2019-03-30T10:08:12.994Z,30.98
2019-03-30T10:10:40.593Z,31.08
2019-03-30T10:13:07.936Z,31.41
2019-03-30T10:15:35.220Z,31.64
2019-03-30T10:18:02.535Z,31.50
2019-03-30T10:20:29.766Z,31.57
2019-03-30T10:22:56.958Z,31.62
2019-03-30T10:25:24.209Z,31.23
2019-03-30T10:27:51.144Z,30.93
2019-03-30T10:30:18.116Z,30.74
2019-03-30T10:32:44.993Z,31.21
2019-03-30T10:35:11.938Z,31.02
2019-03-30T10:37:38.823Z,30.29
2019-03-30T10:40:05.808Z,29.54
2019-03-30T10:42:32.718Z,29.63
2019-03-30T10:44:59.697Z,30.00
2019-03-30T10:47:26.558Z,29.92
2019-03-30T10:49:53.468Z,30.28
2019-03-30T10:52:20.413Z,30.51
2019-03-30T10:54:52.983Z,30.63
2019-03-30T10:57:16.281Z,30.69
2019-03-30T10:59:43.576Z,30.90
2019-03-30T11:02:11.842Z,30.91
2019-03-30T11:04:38.748Z,31.11
2019-03-30T11:07:06.070Z,30.49
2019-03-30T11:09:33.608Z,30.17
2019-03-30T11:12:00.966Z,29.63
2019-03-30T11:14:28.247Z,29.76
2019-03-30T11:16:55.461Z,29.77
2019-03-30T11:19:22.340Z,29.89
2019-03-30T11:21:49.284Z,29.93
2019-03-30T11:24:16.150Z,29.72
2019-03-30T11:26:43.073Z,30.79
2019-03-30T11:29:09.954Z,31.37
2019-03-30T11:31:36.864Z,31.90
2019-03-30T11:34:05.507Z,31.56
2019-03-30T11:36:32.892Z,31.79
2019-03-30T11:38:59.927Z,31.87
2019-03-30T11:41:26.838Z,32.35
2019-03-30T11:43:53.775Z,32.22
2019-03-30T11:46:20.739Z,32.56
2019-03-30T11:48:47.674Z,32.47
2019-03-30T11:51:14.851Z,32.50
2019-03-30T11:53:42.130Z,32.83
2019-03-30T11:56:09.457Z,32.96
2019-03-30T11:58:36.430Z,32.94
2019-03-30T12:01:03.670Z,33.08
2019-03-30T12:03:30.644Z,33.67
2019-03-30T12:05:57.542Z,33.89
2019-03-30T12:08:24.808Z,33.97
2019-03-30T12:10:51.992Z,34.33
2019-03-30T12:13:18.904Z,34.14
2019-03-30T12:15:46.166Z,34.09
2019-03-30T12:18:13.141Z,33.61
2019-03-30T12:20:40.007Z,33.64
2019-03-30T12:23:06.908Z,33.67
2019-03-30T12:25:35.985Z,33.22
2019-03-30T12:28:03.029Z,32.87
2019-03-30T12:30:29.915Z,33.12
2019-03-30T12:32:57.134Z,33.38
2019-03-30T12:35:25.248Z,33.66
2019-03-30T12:37:52.233Z,33.44
2019-03-30T12:40:19.261Z,33.54
2019-03-30T12:42:47.681Z,33.65
2019-03-30T12:45:14.548Z,33.38
2019-03-30T12:47:41.781Z,33.14
2019-03-30T12:50:08.678Z,33.19
2019-03-30T12:52:35.998Z,33.24
2019-03-30T12:55:02.974Z,33.26
2019-03-30T12:57:29.917Z,33.34
2019-03-30T13:02:25.713Z,33.22
2019-03-30T13:04:52.726Z,33.30
2019-03-30T13:07:19.670Z,33.35
2019-03-30T13:09:46.838Z,33.46
2019-03-30T13:12:13.713Z,34.31
2019-03-30T13:14:40.581Z,35.34
2019-03-30T13:17:07.560Z,36.73
2019-03-30T13:19:34.444Z,36.62
2019-03-30T13:22:01.984Z,37.39
2019-03-30T13:24:28.856Z,37.34
2019-03-30T13:26:56.096Z,36.76
2019-03-30T13:29:25.988Z,36.54
2019-03-30T13:31:53.252Z,36.05
2019-03-30T13:34:20.257Z,35.23
2019-03-30T13:36:47.549Z,34.58
2019-03-30T13:39:14.425Z,34.24
2019-03-30T13:41:41.420Z,33.82
2019-03-30T13:44:08.374Z,33.51
2019-03-30T13:46:35.305Z,33.31
2019-03-30T13:49:02.235Z,32.97
2019-03-30T13:51:29.117Z,32.76
2019-03-30T13:53:56.006Z,32.59
2019-03-30T13:56:22.899Z,32.59
2019-03-30T13:58:50.270Z,32.99
2019-03-30T14:01:17.214Z,33.04
2019-03-30T14:03:44.358Z,33.11
2019-03-30T14:06:11.613Z,33.48
2019-03-30T14:08:38.802Z,34.48
2019-03-30T14:11:05.776Z,34.82
2019-03-30T14:13:33.087Z,34.64
2019-03-30T14:16:00.410Z,34.88
2019-03-30T14:18:27.305Z,36.09
2019-03-30T14:20:54.523Z,36.01
2019-03-30T14:23:21.877Z,35.74
2019-03-30T14:25:49.011Z,35.29
2019-03-30T14:28:16.271Z,34.92
2019-03-30T14:30:43.144Z,34.45
2019-03-30T14:33:10.332Z,34.50
2019-03-30T14:35:37.652Z,34.77
2019-03-30T14:38:04.602Z,34.35
2019-03-30T14:40:31.499Z,34.38
2019-03-30T14:42:58.653Z,34.65
2019-03-30T14:45:25.921Z,34.15
2019-03-30T14:47:53.181Z,33.39
2019-03-30T14:50:20.163Z,33.46
2019-03-30T14:52:47.477Z,33.66
2019-03-30T14:55:14.818Z,33.38
2019-03-30T14:57:41.973Z,33.36
2019-03-30T15:00:08.870Z,33.25
2019-03-30T15:02:36.281Z,33.05
2019-03-30T15:05:03.218Z,33.06
2019-03-30T15:07:30.395Z,33.15
2019-03-30T15:09:57.621Z,33.07
2019-03-30T15:12:25.582Z,33.10
2019-03-30T15:14:53.085Z,32.89
2019-03-30T15:17:19.978Z,32.92
2019-03-30T15:19:46.928Z,32.81
2019-03-30T15:22:13.868Z,32.81
2019-03-30T15:24:40.793Z,32.62
2019-03-30T15:27:09.018Z,32.63
2019-03-30T15:29:36.286Z,32.32
2019-03-30T15:32:03.629Z,31.98
2019-03-30T15:34:30.882Z,32.07
2019-03-30T15:36:58.358Z,32.20
2019-03-30T15:39:25.235Z,32.04
2019-03-30T15:41:52.121Z,32.39
2019-03-30T15:44:19.481Z,32.30
2019-03-30T15:46:46.739Z,32.44
2019-03-30T15:49:13.654Z,32.52
2019-03-30T15:51:40.597Z,32.46
2019-03-30T15:54:07.469Z,32.21
2019-03-30T15:56:34.365Z,32.25
2019-03-30T15:59:01.348Z,32.55
2019-03-30T16:01:28.315Z,32.50
2019-03-30T16:03:55.563Z,32.68
2019-03-30T16:06:22.724Z,32.35
2019-03-30T16:08:49.662Z,32.26
2019-03-30T16:11:16.918Z,32.44
2019-03-30T16:13:43.894Z,32.48
2019-03-30T16:16:10.889Z,32.63
2019-03-30T16:18:38.058Z,32.79
2019-03-30T16:21:05.304Z,32.94
2019-03-30T16:23:32.614Z,33.10
2019-03-30T16:25:59.908Z,33.31
2019-03-30T16:28:26.873Z,33.10
2019-03-30T16:30:53.853Z,32.91
2019-03-30T16:33:20.729Z,33.03
2019-03-30T16:35:48.120Z,33.00
2019-03-30T16:38:15.004Z,32.68
2019-03-30T16:40:41.889Z,32.45
2019-03-30T16:43:08.831Z,32.30
2019-03-30T16:45:35.703Z,32.25
2019-03-30T16:48:03.024Z,32.03
2019-03-30T16:50:29.917Z,31.96
2019-03-30T16:52:57.229Z,32.03
2019-03-30T16:55:24.127Z,31.95
2019-03-30T16:57:51.013Z,31.82
2019-03-30T17:00:19.057Z,31.73
2019-03-30T17:02:46.015Z,31.77
2019-03-30T17:05:12.977Z,31.43
2019-03-30T17:07:39.975Z,31.29
2019-03-30T17:10:06.921Z,31.36
2019-03-30T17:12:34.227Z,31.40
2019-03-30T17:15:01.491Z,31.29
2019-03-30T17:17:29.368Z,31.40
2019-03-30T17:19:56.605Z,31.33
2019-03-30T17:22:23.961Z,31.00
2019-03-30T17:24:50.833Z,30.71
2019-03-30T17:27:18.060Z,30.72
2019-03-30T17:29:45.092Z,30.85
2019-03-30T17:32:12.062Z,30.86
2019-03-30T17:34:39.315Z,30.79
2019-03-30T17:37:06.263Z,30.85
2019-03-30T17:39:33.521Z,30.94
2019-03-30T17:42:00.721Z,30.94
2019-03-30T17:44:27.612Z,31.00
2019-03-30T17:46:54.592Z,31.16
2019-03-30T17:49:21.553Z,31.21
2019-03-30T17:51:48.417Z,31.29
2019-03-30T17:54:15.328Z,31.28
2019-03-30T17:56:42.299Z,31.31
2019-03-30T17:59:09.257Z,31.50
2019-03-30T18:01:36.534Z,31.67
2019-03-30T18:04:03.774Z,31.88
2019-03-30T18:06:30.645Z,32.04
2019-03-30T18:08:57.580Z,32.17
2019-03-30T18:11:24.526Z,32.26
2019-03-30T18:13:51.494Z,32.35
2019-03-30T18:16:18.454Z,32.44
2019-03-30T18:18:45.679Z,32.52
2019-03-30T18:21:12.664Z,32.54
2019-03-30T18:23:39.653Z,32.53
2019-03-30T18:26:06.843Z,32.45
2019-03-30T18:28:34.147Z,32.38
2019-03-30T18:31:01.647Z,32.38
2019-03-30T18:33:28.985Z,32.43
2019-03-30T18:35:55.910Z,32.28
2019-03-30T18:38:22.857Z,32.15
2019-03-30T18:40:50.048Z,32.13
2019-03-30T18:43:17.259Z,32.14
2019-03-30T18:45:44.514Z,32.19
2019-03-30T18:48:11.994Z,32.24
2019-03-30T18:50:39.232Z,32.25
2019-03-30T18:53:06.194Z,32.30
2019-03-30T18:55:33.417Z,32.37
2019-03-30T18:58:00.585Z,32.51
2019-03-30T19:00:28.143Z,32.69
2019-03-30T19:02:55.176Z,32.80
2019-03-30T19:05:22.433Z,32.98
2019-03-30T19:07:49.410Z,33.19
2019-03-30T19:10:16.628Z,33.36
2019-03-30T19:12:43.503Z,33.42
2019-03-30T19:15:10.751Z,33.51
2019-03-30T19:17:37.625Z,33.55
2019-03-30T19:20:04.950Z,33.54
2019-03-30T19:22:31.931Z,33.61
2019-03-30T19:24:58.859Z,33.60
2019-03-30T19:27:25.834Z,33.66
2019-03-30T19:29:53.129Z,33.73
2019-03-30T19:32:20.066Z,33.79
2019-03-30T19:34:47.205Z,33.91
2019-03-30T19:37:14.479Z,33.82
2019-03-30T19:39:41.433Z,33.72
2019-03-30T19:42:08.669Z,33.82
2019-03-30T19:44:35.939Z,34.32
2019-03-30T19:47:02.874Z,34.65
2019-03-30T19:49:29.741Z,34.87
2019-03-30T19:51:56.978Z,34.73
2019-03-30T19:54:24.317Z,34.82
2019-03-30T19:56:51.285Z,34.82
2019-03-30T19:59:18.222Z,34.71
2019-03-30T20:01:45.161Z,34.66
2019-03-30T20:04:12.031Z,34.67
2019-03-30T20:06:39.253Z,34.71
2019-03-30T20:09:06.513Z,34.75
2019-03-30T20:11:35.021Z,34.82
2019-03-30T20:14:01.981Z,34.92
2019-03-30T20:16:29.283Z,34.99
2019-03-30T20:19:11.579Z,35.12
2019-03-30T20:21:24.811Z,35.16
2019-03-30T20:23:51.965Z,35.28
2019-03-30T20:26:18.933Z,35.32
2019-03-30T20:28:45.895Z,35.30
2019-03-30T20:31:12.832Z,35.40
2019-03-30T20:33:39.794Z,35.38
2019-03-30T20:36:09.449Z,35.30
2019-03-30T20:38:36.403Z,35.25
2019-03-30T20:41:03.375Z,35.26
2019-03-30T20:43:30.714Z,35.32
2019-03-30T20:45:58.802Z,35.39
2019-03-30T20:48:25.668Z,35.51
2019-03-30T20:50:52.896Z,35.56
2019-03-30T20:53:19.792Z,35.68
2019-03-30T20:55:47.076Z,35.77
2019-03-30T20:58:14.315Z,35.85
2019-03-30T21:00:41.465Z,35.90
2019-03-30T21:03:08.623Z,35.99
2019-03-30T21:05:35.518Z,36.06
2019-03-30T21:08:03.451Z,36.16
2019-03-30T21:10:30.422Z,36.16
2019-03-30T21:12:57.387Z,36.17
2019-03-30T21:15:24.280Z,36.30
2019-03-30T21:17:51.239Z,36.34
2019-03-30T21:20:18.480Z,36.37
2019-03-30T21:22:45.442Z,36.42
2019-03-30T21:25:12.662Z,36.40
2019-03-30T21:27:39.545Z,36.37
2019-03-30T21:30:06.778Z,36.36
2019-03-30T21:32:34.742Z,36.39
2019-03-30T21:35:01.993Z,36.47
2019-03-30T21:37:29.993Z,36.53
2019-03-30T21:39:56.865Z,36.61
2019-03-30T21:42:23.757Z,36.72
2019-03-30T21:44:50.728Z,36.78
2019-03-30T21:47:17.688Z,36.91
2019-03-30T21:49:44.999Z,37.02
2019-03-30T21:52:12.238Z,37.17
2019-03-30T21:54:39.502Z,37.27
2019-03-30T21:57:06.759Z,37.42
2019-03-30T21:59:33.753Z,37.48
2019-03-30T22:02:00.708Z,37.47
2019-03-30T22:04:27.736Z,37.46
2019-03-30T22:06:54.633Z,37.60
2019-03-30T22:09:21.524Z,37.61
2019-03-30T22:11:49.144Z,37.50
2019-03-30T22:14:16.014Z,37.50
2019-03-30T22:16:42.961Z,37.79
2019-03-30T22:19:09.907Z,37.80
2019-03-30T22:21:36.767Z,37.82
2019-03-30T22:24:04.288Z,37.90
2019-03-30T22:26:31.258Z,38.09
2019-03-30T22:28:58.210Z,38.28
2019-03-30T22:31:25.144Z,38.30
2019-03-30T22:33:52.031Z,38.26
2019-03-30T22:36:19.321Z,38.25
2019-03-30T22:38:46.316Z,38.14
2019-03-30T22:41:13.198Z,38.08
2019-03-30T22:43:40.207Z,38.06
2019-03-30T22:46:07.751Z,38.14
2019-03-30T22:48:34.905Z,38.28
2019-03-30T22:51:02.226Z,38.38
2019-03-30T22:53:30.513Z,38.49
2019-03-30T22:55:57.421Z,38.43
2019-03-30T22:58:24.289Z,38.34
2019-03-30T23:00:51.178Z,38.29
2019-03-30T23:03:18.702Z,38.19
2019-03-30T23:05:46.056Z,38.15
2019-03-30T23:08:13.035Z,38.22
2019-03-30T23:10:39.902Z,38.22
2019-03-30T23:13:07.093Z,38.24
2019-03-30T23:15:34.340Z,38.23
2019-03-30T23:18:02.309Z,38.25
2019-03-30T23:20:29.301Z,38.12
2019-03-30T23:22:56.238Z,38.02
2019-03-30T23:25:23.124Z,37.99
2019-03-30T23:27:50.022Z,38.01
2019-03-30T23:30:16.981Z,38.01
2019-03-30T23:32:43.962Z,38.00
2019-03-30T23:35:10.835Z,37.97
2019-03-30T23:37:37.704Z,37.92
2019-03-30T23:40:04.581Z,37.88
2019-03-30T23:42:31.769Z,37.80
2019-03-30T23:44:58.655Z,37.76
2019-03-30T23:47:25.656Z,37.74
2019-03-30T23:49:52.532Z,37.79
2019-03-30T23:52:19.482Z,37.85
2019-03-30T23:54:46.437Z,37.78
2019-03-30T23:57:13.388Z,37.80
2019-03-30T23:59:40.695Z,37.92
